Main page
METAR-TAF:

METAR-TAF

Airports :

Gökçeada Airport

Gökçeada, Turkey

latitude: 40-12-04N, longitude: 25-52-56E, elevation: 22 m

Current weather observation

The report was made 14 hours and 40 minutes ago, at 12:50 UTC
Wind 10 kt from variable directions
Temperature 19°C
Humidity 78%
Pressure 1019 hPa
Visibility 10 km or more
Broken clouds at a height of 2000 ft
Broken clouds at a height of 7000 ft
light rain showers

METAR: LTFK 151250Z VRB10KT 9999 -SHRA BKN020 BKN070 19/15 Q1019

Time: 06:30 (03:30 UTC)

Forecast

The report was made 1 hour and 50 minutes ago, at 01:40 UTC
Forecast valid from 16 at 03 UTC to 16 at 12 UTC
Wind 15 kt from the North/Northeast
Visibility 10 km or more
Few clouds at a height of 1500 ft
Scattered clouds at a height of 2500 ft

TAF: LTFK 160140Z 1603/1612 03015KT 9999 FEW015 SCT025

Weather observations and forecasts of more than 4000 airports (METAR and TAF reports).

The available stations are represented by yellow and red dots on the map.

Hover mouse over dot to see the name of the station.

Then click to see weather observations and forecasts.

To change the map : click on the green buttons with a black cross to zoom in, on the green button with a dash to zoom out, or on the green arrows for adjacent maps.


METAR-TAF: